createdAt,value
2023-04-25T00:01:29.625Z,100768.06
2023-04-25T00:04:00.361Z,100761.03
2023-04-25T00:06:32.352Z,100754.03
2023-04-25T00:09:02.976Z,100749.63
2023-04-25T00:11:33.958Z,100753.84
2023-04-25T00:14:04.999Z,100752.13
2023-04-25T00:16:37.352Z,100758.19
2023-04-25T00:19:07.860Z,100752.13
2023-04-25T00:21:40.312Z,100752.97
2023-04-25T00:24:11.330Z,100754.75
2023-04-25T00:26:42.507Z,100753.19
2023-04-25T00:29:12.925Z,100754.03
2023-04-25T00:31:43.752Z,100755.81
2023-04-25T00:34:14.309Z,100747.09
2023-04-25T00:36:44.820Z,100748.03
2023-04-25T00:39:15.885Z,100753.25
2023-04-25T00:41:48.215Z,100748.97
2023-04-25T00:44:19.573Z,100755.16
2023-04-25T00:46:52.151Z,100765.53
2023-04-25T00:49:22.647Z,100760.41
2023-04-25T00:51:53.069Z,100762.19
2023-04-25T00:54:23.977Z,100754.31
2023-04-25T00:56:54.712Z,100765.63
2023-04-25T00:59:25.513Z,100768.38
2023-04-25T01:01:56.079Z,100757.88
2023-04-25T01:04:26.887Z,100769.22
2023-04-25T01:06:58.148Z,100766.66
2023-04-25T01:09:29.483Z,100762.28
2023-04-25T01:12:00.188Z,100765.00
2023-04-25T01:14:31.730Z,100763.31
2023-04-25T01:17:02.800Z,100767.63
2023-04-25T01:19:33.430Z,100765.94
2023-04-25T01:22:04.126Z,100760.69
2023-04-25T01:24:36.276Z,100771.19
2023-04-25T01:27:07.242Z,100765.09
2023-04-25T01:29:38.895Z,100757.25
2023-04-25T01:32:10.710Z,100753.78
2023-04-25T01:34:42.615Z,100747.69
2023-04-25T01:37:13.185Z,100749.56
2023-04-25T01:39:44.261Z,100747.78
2023-04-25T01:42:15.608Z,100734.69
2023-04-25T01:44:46.823Z,100732.06
2023-04-25T01:47:17.763Z,100724.31
2023-04-25T01:49:48.812Z,100714.66
2023-04-25T01:52:19.947Z,100717.28
2023-04-25T01:54:50.925Z,100723.47
2023-04-25T01:57:21.611Z,100712.16
2023-04-25T01:59:52.892Z,100702.63
2023-04-25T02:02:41.662Z,100707.03
2023-04-25T02:05:36.990Z,100702.69
2023-04-25T02:08:11.875Z,100709.63
2023-04-25T02:10:42.265Z,100702.63
2023-04-25T02:13:21.645Z,100698.28
2023-04-25T02:16:18.304Z,100684.34
2023-04-25T02:18:49.464Z,100679.09
2023-04-25T02:21:20.012Z,100679.94
2023-04-25T02:23:52.283Z,100672.94
2023-04-25T02:26:23.700Z,100675.56
2023-04-25T02:28:54.698Z,100666.84
2023-04-25T02:31:25.090Z,100672.94
2023-04-25T02:33:55.764Z,100670.41
2023-04-25T02:39:22.080Z,100657.41
2023-04-25T02:41:52.854Z,100640.03
2023-04-25T02:47:09.100Z,100637.28
2023-04-25T02:49:39.737Z,100628.59
2023-04-25T02:52:10.268Z,100628.59
2023-04-25T02:54:41.338Z,100610.25
2023-04-25T02:57:13.030Z,100598.94
2023-04-25T02:59:43.243Z,100593.69
2023-04-25T03:02:14.009Z,100591.09
2023-04-25T03:04:44.554Z,100600.72
2023-04-25T03:07:15.032Z,100584.16
2023-04-25T03:09:45.765Z,100589.41
2023-04-25T03:12:16.245Z,100582.38
2023-04-25T03:14:47.142Z,100580.69
2023-04-25T03:17:18.864Z,100581.59
2023-04-25T03:19:50.959Z,100580.69
2023-04-25T03:22:21.710Z,100573.56
2023-04-25T03:24:52.714Z,100556.91
2023-04-25T03:27:23.343Z,100542.84
2023-04-25T03:29:54.633Z,100551.47
2023-04-25T03:32:25.230Z,100555.75
2023-04-25T03:34:55.853Z,100549.56
2023-04-25T03:37:28.642Z,100539.09
2023-04-25T03:39:59.879Z,100541.50
2023-04-25T03:42:43.466Z,100523.16
2023-04-25T03:45:15.923Z,100520.44
2023-04-25T03:47:46.998Z,100512.56
2023-04-25T03:50:17.728Z,100493.28
2023-04-25T03:52:48.830Z,100489.72
2023-04-25T03:55:19.631Z,100487.94
2023-04-25T03:57:50.131Z,100484.38
2023-04-25T04:00:21.974Z,100482.38
2023-04-25T04:02:55.524Z,100485.09
2023-04-25T04:05:27.006Z,100481.56
2023-04-25T04:07:59.562Z,100474.53
2023-04-25T04:10:30.607Z,100465.59
2023-04-25T04:13:01.875Z,100460.47
2023-04-25T04:15:35.367Z,100452.59
2023-04-25T04:18:05.927Z,100462.00
2023-04-25T04:20:36.521Z,100458.56
2023-04-25T04:23:07.875Z,100448.91
2023-04-25T04:25:39.375Z,100441.03
2023-04-25T04:28:56.848Z,100442.84
2023-04-25T04:31:48.801Z,100442.75
2023-04-25T04:34:20.879Z,100440.13
2023-04-25T04:36:52.400Z,100430.56
2023-04-25T04:39:23.837Z,100434.06
2023-04-25T04:42:14.219Z,100431.44
2023-04-25T04:45:08.118Z,100426.06
2023-04-25T04:47:48.388Z,100422.50
2023-04-25T04:50:38.602Z,100410.22
2023-04-25T04:53:08.987Z,100403.19
2023-04-25T04:55:49.857Z,100399.78
2023-04-25T04:58:51.507Z,100390.25
2023-04-25T05:01:44.948Z,100395.41
2023-04-25T05:04:38.639Z,100393.00
2023-04-25T05:07:23.788Z,100395.97
2023-04-25T05:10:28.534Z,100390.09
2023-04-25T05:19:27.421Z,100370.19
2023-04-25T05:22:33.574Z,100363.28
2023-04-25T05:25:15.900Z,100353.72
2023-04-25T05:28:04.502Z,100348.47
2023-04-25T05:30:53.898Z,100341.56
2023-04-25T05:33:30.962Z,100337.16
2023-04-25T05:36:06.606Z,100331.91
2023-04-25T05:38:37.140Z,100324.06
2023-04-25T05:41:25.729Z,100315.47
2023-04-25T05:44:03.529Z,100317.28
2023-04-25T05:46:56.436Z,100312.88
2023-04-25T05:49:58.725Z,100305.09
2023-04-25T05:53:01.414Z,100292.84
2023-04-25T05:55:35.324Z,100278.78
2023-04-25T05:58:19.538Z,100274.50
2023-04-25T06:00:51.028Z,100276.25
2023-04-25T06:03:22.022Z,100269.25
2023-04-25T06:05:56.897Z,100263.06
2023-04-25T06:08:27.491Z,100247.44
2023-04-25T06:10:57.889Z,100246.59
2023-04-25T06:13:28.491Z,100247.44
2023-04-25T06:15:59.943Z,100257.91
2023-04-25T06:18:31.027Z,100247.56
2023-04-25T06:21:01.491Z,100246.72
2023-04-25T06:23:32.131Z,100236.25
2023-04-25T06:26:07.649Z,100238.03
2023-04-25T06:28:41.665Z,100234.56
2023-04-25T06:31:12.865Z,100230.16
2023-04-25T06:33:46.113Z,100228.38
2023-04-25T06:36:16.931Z,100218.84
2023-04-25T06:38:51.270Z,100211.94
2023-04-25T06:41:22.562Z,100203.22
2023-04-25T06:43:54.069Z,100205.00
2023-04-25T06:46:38.903Z,100200.59
2023-04-25T06:49:10.055Z,100198.94
2023-04-25T06:51:41.471Z,100198.94
2023-04-25T06:54:12.190Z,100190.25
2023-04-25T06:56:51.404Z,100192.84
2023-04-25T06:59:22.090Z,100195.47
2023-04-25T07:01:53.685Z,100192.84
2023-04-25T07:04:29.005Z,100197.38
2023-04-25T07:07:03.455Z,100188.56
2023-04-25T07:09:56.223Z,100194.66
2023-04-25T07:12:26.852Z,100185.13
2023-04-25T07:14:57.385Z,100185.13
2023-04-25T07:17:27.966Z,100192.97
2023-04-25T07:19:58.505Z,100185.25
2023-04-25T07:22:30.205Z,100186.91
2023-04-25T07:25:00.880Z,100188.69
2023-04-25T07:27:32.816Z,100181.75
2023-04-25T07:30:13.259Z,100187.97
2023-04-25T07:32:44.310Z,100187.13
2023-04-25T07:35:15.057Z,100187.13
2023-04-25T07:37:45.525Z,100180.22
2023-04-25T07:40:19.073Z,100177.59
2023-04-25T07:42:54.282Z,100182.00
2023-04-25T07:45:31.931Z,100182.97
2023-04-25T07:48:02.854Z,100179.47
2023-04-25T07:50:35.503Z,100183.88
2023-04-25T07:53:06.528Z,100174.25
2023-04-25T07:55:44.294Z,100167.34
2023-04-25T07:58:24.679Z,100163.88
2023-04-25T08:00:59.419Z,100169.97
2023-04-25T08:03:39.082Z,100179.59
2023-04-25T08:06:17.108Z,100165.78
2023-04-25T08:09:03.505Z,100163.19
2023-04-25T08:11:41.138Z,100158.78
2023-04-25T08:14:15.162Z,100173.66
2023-04-25T08:16:46.614Z,100171.09
2023-04-25T08:19:17.278Z,100169.34
2023-04-25T08:21:48.920Z,100166.72
2023-04-25T08:24:25.336Z,100167.66
2023-04-25T08:26:57.267Z,100164.19
2023-04-25T08:29:31.091Z,100166.09
2023-04-25T08:32:01.920Z,100166.09
2023-04-25T08:34:33.038Z,100161.81
2023-04-25T08:37:07.211Z,100162.66
2023-04-25T08:39:47.683Z,100161.81
2023-04-25T08:42:38.060Z,100150.47
2023-04-25T08:45:10.128Z,100151.44
2023-04-25T08:47:43.977Z,100152.38
2023-04-25T08:50:15.110Z,100162.03
2023-04-25T08:52:50.566Z,100161.19
2023-04-25T08:55:22.554Z,100156.91
2023-04-25T08:57:59.268Z,100152.50
2023-04-25T09:00:29.899Z,100149.06
2023-04-25T09:03:02.104Z,100149.06
2023-04-25T09:05:39.289Z,100153.44
2023-04-25T09:08:11.274Z,100154.38
2023-04-25T09:10:42.678Z,100146.53
2023-04-25T09:13:17.418Z,100143.06
2023-04-25T09:16:05.976Z,100144.03
2023-04-25T09:18:48.433Z,100142.38
2023-04-25T09:21:20.628Z,100143.19
2023-04-25T09:23:54.289Z,100144.16
2023-04-25T09:26:25.240Z,100139.84
2023-04-25T09:29:09.872Z,100149.47
2023-04-25T09:31:43.942Z,100150.31
2023-04-25T09:34:18.252Z,100149.47
2023-04-25T09:36:58.057Z,100142.59
2023-04-25T09:39:49.737Z,100137.34
2023-04-25T09:42:24.988Z,100122.59
2023-04-25T09:44:56.770Z,100125.22
2023-04-25T09:47:31.011Z,100127.00
2023-04-25T09:50:01.354Z,100127.94
2023-04-25T09:52:32.876Z,100138.41
2023-04-25T09:55:14.846Z,100134.09
2023-04-25T09:57:51.842Z,100124.47
2023-04-25T10:00:24.333Z,100128.03
2023-04-25T10:02:55.784Z,100128.03
2023-04-25T10:05:47.465Z,100128.16
2023-04-25T10:08:18.992Z,100125.53
2023-04-25T10:10:53.322Z,100131.72
2023-04-25T10:13:24.324Z,100136.13
2023-04-25T10:15:57.042Z,100133.53
2023-04-25T10:18:29.918Z,100133.53
2023-04-25T10:21:03.125Z,100139.69
2023-04-25T10:23:34.915Z,100138.84
2023-04-25T10:26:06.244Z,100130.16
2023-04-25T10:29:00.382Z,100132.91
2023-04-25T10:31:33.302Z,100134.56
2023-04-25T10:34:04.272Z,100140.75
2023-04-25T10:36:39.930Z,100138.25
2023-04-25T10:39:13.639Z,100133.03
2023-04-25T10:41:55.174Z,100138.25
2023-04-25T10:44:26.070Z,100138.25
2023-04-25T10:46:59.649Z,100138.34
2023-04-25T10:49:45.703Z,100149.66
2023-04-25T10:52:43.174Z,100148.81
2023-04-25T10:55:14.002Z,100148.00
2023-04-25T10:57:46.427Z,100128.00
2023-04-25T11:00:18.505Z,100128.97
2023-04-25T11:02:51.378Z,100131.56
2023-04-25T11:05:32.907Z,100144.66
2023-04-25T11:08:08.194Z,100140.34
2023-04-25T11:10:39.170Z,100136.81
2023-04-25T11:13:09.672Z,100129.03
2023-04-25T11:15:41.146Z,100132.50
2023-04-25T11:18:11.792Z,100142.25
2023-04-25T11:20:46.199Z,100137.84
2023-04-25T11:23:18.502Z,100142.25
2023-04-25T11:25:49.182Z,100139.75
2023-04-25T11:28:27.864Z,100138.94
2023-04-25T11:30:59.821Z,100138.09
2023-04-25T11:33:30.469Z,100143.34
2023-04-25T11:36:01.635Z,100140.72
2023-04-25T11:38:32.510Z,100164.28
2023-04-25T11:41:02.921Z,100146.03
2023-04-25T11:43:33.569Z,100143.44
2023-04-25T11:46:10.734Z,100164.38
2023-04-25T11:48:45.954Z,100165.31
2023-04-25T11:51:16.348Z,100162.69
2023-04-25T11:53:48.762Z,100167.09
2023-04-25T11:56:20.097Z,100150.56
2023-04-25T11:59:04.296Z,100173.31
2023-04-25T12:01:36.887Z,100176.00
2023-04-25T12:04:18.884Z,100180.31
2023-04-25T12:06:51.229Z,100179.47
2023-04-25T12:09:24.644Z,100181.25
2023-04-25T12:11:58.714Z,100177.78
2023-04-25T12:14:31.363Z,100185.66
2023-04-25T12:17:09.551Z,100181.38
2023-04-25T12:19:46.328Z,100180.53
2023-04-25T12:22:25.670Z,100196.25
2023-04-25T12:24:56.676Z,100194.56
2023-04-25T12:27:29.848Z,100193.75
2023-04-25T12:30:01.005Z,100189.34
2023-04-25T12:32:32.475Z,100200.63
2023-04-25T12:35:02.911Z,100193.75
2023-04-25T12:37:33.461Z,100188.50
2023-04-25T12:40:04.090Z,100179.78
2023-04-25T12:42:34.550Z,100180.75
2023-04-25T12:45:05.024Z,100184.19
2023-04-25T12:47:37.820Z,100193.81
2023-04-25T12:50:09.415Z,100202.63
2023-04-25T12:52:39.801Z,100206.09
2023-04-25T12:55:11.278Z,100201.78
2023-04-25T12:57:42.368Z,100207.03
2023-04-25T13:00:17.223Z,100206.19
2023-04-25T13:02:48.218Z,100200.97
2023-04-25T13:05:18.909Z,100212.38
2023-04-25T13:07:49.564Z,100212.38
2023-04-25T13:10:20.632Z,100212.38
2023-04-25T13:12:51.157Z,100206.31
2023-04-25T13:15:22.989Z,100208.94
2023-04-25T13:17:53.525Z,100204.63
2023-04-25T13:20:24.928Z,100203.78
2023-04-25T13:22:56.172Z,100209.03
2023-04-25T13:25:29.365Z,100202.97
2023-04-25T13:28:00.485Z,100208.19
2023-04-25T13:30:30.908Z,100216.88
2023-04-25T13:33:05.588Z,100218.78
2023-04-25T13:35:37.772Z,100224.84
2023-04-25T13:38:09.511Z,100221.41
2023-04-25T13:40:40.196Z,100214.50
2023-04-25T13:43:10.621Z,100225.81
2023-04-25T13:45:42.252Z,100230.19
2023-04-25T13:48:13.037Z,100226.72
2023-04-25T13:50:44.211Z,100225.88
2023-04-25T13:53:14.768Z,100228.63
2023-04-25T13:55:46.268Z,100224.22
2023-04-25T13:58:16.552Z,100219.81
2023-04-25T14:00:48.647Z,100219.94
2023-04-25T14:03:19.201Z,100216.38
2023-04-25T14:05:49.545Z,100209.47
2023-04-25T14:08:20.545Z,100219.09
2023-04-25T14:10:51.113Z,100208.63
2023-04-25T14:13:22.353Z,100214.00
2023-04-25T14:15:53.234Z,100214.00
2023-04-25T14:18:23.830Z,100212.19
2023-04-25T14:20:54.260Z,100213.13
2023-04-25T14:23:24.518Z,100208.00
2023-04-25T14:25:55.111Z,100201.81
2023-04-25T14:28:26.381Z,100194.91
2023-04-25T14:30:56.911Z,100194.09
2023-04-25T14:33:28.366Z,100194.91
2023-04-25T14:35:58.881Z,100186.25
2023-04-25T14:38:29.451Z,100189.81
2023-04-25T14:40:59.899Z,100188.97
2023-04-25T14:43:30.391Z,100182.03
2023-04-25T14:46:00.968Z,100179.41
2023-04-25T14:48:32.359Z,100187.28
2023-04-25T14:51:03.555Z,100182.16
2023-04-25T14:53:34.887Z,100180.38
2023-04-25T14:56:05.725Z,100179.53
2023-04-25T14:58:36.490Z,100181.31
2023-04-25T15:01:07.074Z,100180.63
2023-04-25T15:03:38.027Z,100186.69
2023-04-25T15:06:11.622Z,100178.00
2023-04-25T15:08:42.372Z,100185.84
2023-04-25T15:11:13.662Z,100184.16
2023-04-25T15:13:44.193Z,100178.09
2023-04-25T15:16:15.331Z,100176.31
2023-04-25T15:18:46.224Z,100193.78
2023-04-25T15:21:16.644Z,100192.94
2023-04-25T15:23:47.206Z,100191.28
2023-04-25T15:26:18.531Z,100196.50
2023-04-25T15:28:49.105Z,100189.63
2023-04-25T15:31:20.286Z,100191.41
2023-04-25T15:33:51.025Z,100201.03
2023-04-25T15:36:23.167Z,100190.56
2023-04-25T15:38:53.975Z,100190.56
2023-04-25T15:41:25.243Z,100194.09
2023-04-25T15:43:56.287Z,100196.72
2023-04-25T15:46:27.206Z,100191.59
2023-04-25T15:48:58.322Z,100191.59
2023-04-25T15:51:29.758Z,100196.84
2023-04-25T15:54:00.359Z,100194.22
2023-04-25T15:56:31.217Z,100195.19
2023-04-25T15:59:01.933Z,100196.97
2023-04-25T16:01:33.066Z,100195.25
2023-04-25T16:04:04.274Z,100186.56
2023-04-25T16:06:35.267Z,100188.38
2023-04-25T16:09:06.221Z,100183.97
2023-04-25T16:11:36.990Z,100180.50
2023-04-25T16:14:07.665Z,100177.06
2023-04-25T16:16:38.258Z,100179.69
2023-04-25T16:19:09.002Z,100176.22
2023-04-25T16:21:39.670Z,100177.19
2023-04-25T16:24:10.617Z,100169.34
2023-04-25T16:26:42.609Z,100162.44
2023-04-25T16:29:15.094Z,100162.44
2023-04-25T16:31:48.672Z,100153.63
2023-04-25T16:34:19.173Z,100149.44
2023-04-25T16:36:49.845Z,100153.84
2023-04-25T16:39:20.317Z,100154.66
2023-04-25T16:41:51.697Z,100145.16
2023-04-25T16:44:22.295Z,100149.56
2023-04-25T16:46:52.791Z,100154.78
2023-04-25T16:49:23.302Z,100151.34
2023-04-25T16:51:54.525Z,100150.50
2023-04-25T16:54:26.980Z,100144.44
2023-04-25T16:56:58.277Z,100148.84
2023-04-25T16:59:28.756Z,100133.16
2023-04-25T17:01:59.938Z,100131.44
2023-04-25T17:04:30.860Z,100130.63
2023-04-25T17:07:01.535Z,100126.22
2023-04-25T17:09:34.052Z,100128.00
2023-04-25T17:12:05.486Z,100132.41
2023-04-25T17:14:37.469Z,100128.13
2023-04-25T17:17:08.505Z,100122.88
2023-04-25T17:19:39.289Z,100116.00
2023-04-25T17:22:09.876Z,100114.22
2023-04-25T17:24:42.081Z,100118.59
2023-04-25T17:27:13.490Z,100116.91
2023-04-25T17:29:44.148Z,100117.84
2023-04-25T17:32:16.300Z,100124.88
2023-04-25T17:34:49.653Z,100120.47
2023-04-25T17:37:20.469Z,100122.25
2023-04-25T17:39:51.561Z,100126.66
2023-04-25T17:42:21.961Z,100133.66
2023-04-25T17:44:52.587Z,100121.44
2023-04-25T17:47:23.205Z,100127.59
2023-04-25T17:49:54.493Z,100132.00
2023-04-25T17:52:25.823Z,100125.09
2023-04-25T17:54:56.233Z,100129.47
2023-04-25T17:57:26.940Z,100125.09
2023-04-25T17:59:59.229Z,100126.84
2023-04-25T18:02:30.120Z,100114.66
2023-04-25T18:05:01.234Z,100106.03
2023-04-25T18:07:32.105Z,100107.69
2023-04-25T18:10:02.865Z,100117.31
2023-04-25T18:12:35.249Z,100119.94
2023-04-25T18:15:09.411Z,100110.41
2023-04-25T18:17:42.882Z,100108.75
2023-04-25T18:20:17.275Z,100098.28
2023-04-25T18:22:48.461Z,100098.28
2023-04-25T18:25:19.532Z,100094.94
2023-04-25T18:27:50.852Z,100088.78
2023-04-25T18:30:21.220Z,100080.06
2023-04-25T18:32:52.867Z,100079.25
2023-04-25T18:35:24.062Z,100074.84
2023-04-25T18:37:55.014Z,100070.56
2023-04-25T18:40:25.316Z,100068.91
2023-04-25T18:42:56.333Z,100058.44
2023-04-25T18:45:27.119Z,100068.91
2023-04-25T18:47:58.989Z,100078.53
2023-04-25T18:50:30.818Z,100081.13
2023-04-25T18:53:01.956Z,100079.47
2023-04-25T18:55:32.269Z,100075.06
2023-04-25T18:58:02.908Z,100078.66
2023-04-25T19:00:34.188Z,100079.47
2023-04-25T19:03:04.826Z,100076.03
2023-04-25T19:05:35.399Z,100056.88
2023-04-25T19:08:05.887Z,100061.25
2023-04-25T19:10:36.146Z,100063.88
2023-04-25T19:13:06.561Z,100064.81
2023-04-25T19:15:36.997Z,100059.59
2023-04-25T19:18:07.956Z,100058.75
2023-04-25T19:20:38.651Z,100058.75
2023-04-25T19:23:10.582Z,100048.28
2023-04-25T19:25:40.953Z,100047.47
2023-04-25T19:28:14.383Z,100051.88
2023-04-25T19:30:45.045Z,100055.44
2023-04-25T19:33:16.472Z,100052.81
2023-04-25T19:35:47.101Z,100047.59
2023-04-25T19:38:18.464Z,100051.13
2023-04-25T19:40:50.173Z,100044.13
2023-04-25T19:43:22.053Z,100048.50
2023-04-25T19:45:52.719Z,100039.81
2023-04-25T19:48:23.057Z,100044.22
2023-04-25T19:50:54.365Z,100038.16
2023-04-25T19:53:25.096Z,100035.56
2023-04-25T19:55:55.397Z,100031.28
2023-04-25T19:58:26.417Z,100024.25
2023-04-25T20:00:59.099Z,100033.88
2023-04-25T20:03:29.598Z,100031.28
2023-04-25T20:06:00.548Z,100020.94
2023-04-25T20:08:30.924Z,100023.44
2023-04-25T20:11:01.313Z,100021.75
2023-04-25T20:13:31.994Z,100027.00
2023-04-25T20:16:03.445Z,100023.53
2023-04-25T20:18:33.810Z,100015.78
2023-04-25T20:21:04.822Z,100007.00
2023-04-25T20:23:35.172Z,100010.47
2023-04-25T20:26:06.387Z,100003.53
2023-04-25T20:28:37.031Z,100008.78
2023-04-25T20:31:07.904Z,100010.69
2023-04-25T20:33:41.272Z,100007.09
2023-04-25T20:36:11.654Z,100011.50
2023-04-25T20:38:42.343Z,100006.28
2023-04-25T20:41:13.019Z,100008.06
2023-04-25T20:43:43.773Z,100004.63
2023-04-25T20:46:14.200Z,100003.78
2023-04-25T20:48:44.671Z,100001.16
2023-04-25T20:51:15.086Z,100002.13
2023-04-25T20:53:46.221Z,99998.66
2023-04-25T20:56:16.742Z,99988.19
2023-04-25T20:58:49.185Z,99990.81
2023-04-25T21:01:20.667Z,99998.66
2023-04-25T21:03:51.781Z,99992.59
2023-04-25T21:06:22.632Z,99994.47
2023-04-25T21:08:53.238Z,99995.31
2023-04-25T21:11:25.029Z,99996.25
2023-04-25T21:13:55.622Z,99997.09
2023-04-25T21:16:26.433Z,100003.28
2023-04-25T21:18:57.377Z,99992.81
2023-04-25T21:21:28.852Z,100003.28
2023-04-25T21:23:59.594Z,99998.88
2023-04-25T21:26:29.804Z,99997.22
2023-04-25T21:29:00.316Z,99987.69
2023-04-25T21:31:31.603Z,99989.47
2023-04-25T21:34:02.201Z,99991.25
2023-04-25T21:36:34.477Z,100007.75
2023-04-25T21:39:07.006Z,99994.69
2023-04-25T21:41:39.005Z,99996.59
2023-04-25T21:44:09.493Z,99993.97
2023-04-25T21:46:40.151Z,99992.19
2023-04-25T21:49:11.401Z,99979.97
2023-04-25T21:51:41.799Z,99981.75
2023-04-25T21:54:12.572Z,99983.63
2023-04-25T21:56:43.093Z,99988.00
2023-04-25T21:59:13.529Z,99986.25
2023-04-25T22:01:46.780Z,99993.22
2023-04-25T22:04:17.668Z,99986.34
2023-04-25T22:06:48.807Z,99979.34
2023-04-25T22:09:19.418Z,99982.06
2023-04-25T22:11:49.985Z,99988.13
2023-04-25T22:14:20.584Z,99987.28
2023-04-25T22:16:51.766Z,99993.34
2023-04-25T22:19:23.027Z,99998.69
2023-04-25T22:21:53.432Z,99999.53
2023-04-25T22:24:23.982Z,100005.72
2023-04-25T22:26:54.506Z,99995.13
2023-04-25T22:29:25.439Z,99988.25
2023-04-25T22:31:55.849Z,99992.63
2023-04-25T22:34:26.496Z,99997.88
2023-04-25T22:36:57.544Z,99997.88
2023-04-25T22:39:28.152Z,99990.94
2023-04-25T22:41:59.413Z,99986.66
2023-04-25T22:44:29.821Z,99989.19
2023-04-25T22:47:00.209Z,99983.84
2023-04-25T22:49:30.791Z,99981.22
2023-04-25T22:52:01.320Z,99981.03
2023-04-25T22:54:32.057Z,99988.75
2023-04-25T22:57:02.387Z,99979.75
2023-04-25T22:59:32.735Z,99994.47
2023-04-25T23:02:03.911Z,99987.47
2023-04-25T23:04:34.554Z,99992.59
2023-04-25T23:07:05.110Z,99993.22
2023-04-25T23:09:35.780Z,99995.94
2023-04-25T23:12:06.730Z,100007.94
2023-04-25T23:14:37.320Z,99999.25
2023-04-25T23:17:08.130Z,100014.00
2023-04-25T23:19:40.102Z,100013.69
2023-04-25T23:22:10.966Z,100025.09
2023-04-25T23:24:42.014Z,100024.75
2023-04-25T23:27:12.441Z,100019.09
2023-04-25T23:29:43.461Z,100014.81
2023-04-25T23:32:14.222Z,100013.53
2023-04-25T23:34:44.581Z,100012.81
2023-04-25T23:37:14.981Z,100002.47
2023-04-25T23:39:54.447Z,100011.25
2023-04-25T23:42:25.018Z,100015.44
2023-04-25T23:44:55.500Z,100023.94
2023-04-25T23:47:26.947Z,100026.59
2023-04-25T23:49:57.600Z,100011.56
2023-04-25T23:52:29.800Z,100018.69
2023-04-25T23:55:00.362Z,100021.50
2023-04-25T23:57:30.840Z,100026.81
